Time;durP1;ratioP1;P1;durP2;ratioP2;P2;SDS_P1;SDS_P2;PMS_P1;PMS_P2;Temp;Humidity;BMP_temperature;BMP_pressure;BME280_temperature;BME280_humidity;BME280_pressure;Samples;Min_cycle;Max_cycle;Signal;HPM_P1;HPM_P2
2023/08/23 00:00:04;;;;;;;798.47;717.88;;;;;;;;;;4998368;28;20145;-86
2023/08/23 00:02:37;;;;;;;805.85;721.78;;;;;;;;;;5000462;28;20133;-85
2023/08/23 00:05:04;;;;;;;805.53;722.15;;;;;;;;;;4996737;28;20046;-86
2023/08/23 00:07:30;;;;;;;800.92;716.90;;;;;;;;;;5002557;28;20402;-86
2023/08/23 00:09:57;;;;;;;800.45;717.58;;;;;;;;;;4998273;28;20493;-85
2023/08/23 00:12:24;;;;;;;809.03;727.70;;;;;;;;;;5013505;28;20417;-85
2023/08/23 00:14:50;;;;;;;798.83;717.28;;;;;;;;;;4997849;28;20053;-85
2023/08/23 00:17:17;;;;;;;808.50;722.28;;;;;;;;;;5006018;28;20092;-86
2023/08/23 00:19:44;;;;;;;794.20;713.15;;;;;;;;;;4997352;28;20448;-86
2023/08/23 00:22:10;;;;;;;786.85;707.85;;;;;;;;;;4999570;28;20510;-85
2023/08/23 00:24:37;;;;;;;802.20;720.28;;;;;;;;;;4995984;28;20485;-85
2023/08/23 00:27:04;;;;;;;803.72;721.00;;;;;;;;;;5000761;28;20061;-86
2023/08/23 00:29:30;;;;;;;812.85;728.58;;;;;;;;;;4990593;28;20073;-85
2023/08/23 00:31:57;;;;;;;801.67;719.25;;;;;;;;;;4998330;28;20124;-85
2023/08/23 00:34:24;;;;;;;795.67;714.28;;;;;;;;;;5010256;28;20053;-85
2023/08/23 00:36:51;;;;;;;795.85;714.63;;;;;;;;;;5009429;28;20052;-85
2023/08/23 00:39:17;;;;;;;804.92;721.90;;;;;;;;;;4998608;28;20107;-86
2023/08/23 00:41:44;;;;;;;796.78;714.78;;;;;;;;;;5000680;28;20052;-86
2023/08/23 00:44:11;;;;;;;796.05;714.55;;;;;;;;;;4997760;28;20144;-85
2023/08/23 00:46:38;;;;;;;782.90;701.92;;;;;;;;;;4996527;28;20058;-85
2023/08/23 00:49:04;;;;;;;784.38;702.67;;;;;;;;;;5002076;28;20545;-85
2023/08/23 00:51:31;;;;;;;786.28;704.13;;;;;;;;;;4999276;28;20081;-86
2023/08/23 00:53:58;;;;;;;790.10;706.50;;;;;;;;;;5010223;28;20100;-85
2023/08/23 00:56:24;;;;;;;795.45;711.95;;;;;;;;;;5013455;28;20557;-85
2023/08/23 00:58:51;;;;;;;793.45;710.85;;;;;;;;;;5004027;28;20051;-85
2023/08/23 01:01:18;;;;;;;788.58;705.30;;;;;;;;;;4997543;28;20038;-86
2023/08/23 01:03:44;;;;;;;791.17;706.35;;;;;;;;;;4998851;28;20034;-86
2023/08/23 01:06:24;;;;;;;784.17;704.88;;;;;;;;;;5002603;28;20129;-85
2023/08/23 01:09:03;;;;;;;787.78;704.03;;;;;;;;;;4999221;28;20050;-86
2023/08/23 01:11:33;;;;;;;777.03;695.47;;;;;;;;;;4999967;28;20054;-86
2023/08/23 01:14:04;;;;;;;784.47;701.65;;;;;;;;;;4996938;28;20540;-85
2023/08/23 01:16:32;;;;;;;771.45;689.47;;;;;;;;;;5011063;28;20164;-86
2023/08/23 01:19:00;;;;;;;769.35;689.25;;;;;;;;;;4999133;28;20050;-85
2023/08/23 01:21:32;;;;;;;783.47;698.95;;;;;;;;;;4992590;28;20065;-87
2023/08/23 01:23:58;;;;;;;770.28;688.05;;;;;;;;;;5013879;28;20456;-85
2023/08/23 01:26:25;;;;;;;769.40;686.40;;;;;;;;;;5006961;28;20054;-85
2023/08/23 01:28:53;;;;;;;764.70;684.58;;;;;;;;;;5003263;28;20457;-86
2023/08/23 01:31:22;;;;;;;759.22;679.53;;;;;;;;;;5002028;28;20112;-85
2023/08/23 01:33:54;;;;;;;765.95;682.75;;;;;;;;;;5001809;28;20492;-86
2023/08/23 01:36:25;;;;;;;764.70;683.05;;;;;;;;;;5003497;28;20054;-86
2023/08/23 01:38:52;;;;;;;766.10;685.33;;;;;;;;;;4981216;28;20044;-86
2023/08/23 01:41:19;;;;;;;772.45;689.22;;;;;;;;;;5015710;28;20060;-86
2023/08/23 01:43:45;;;;;;;755.65;674.63;;;;;;;;;;4986584;28;20050;-86
2023/08/23 01:46:12;;;;;;;759.38;680.22;;;;;;;;;;4982204;28;20519;-86
2023/08/23 01:48:39;;;;;;;752.70;671.03;;;;;;;;;;5002450;28;20049;-86
2023/08/23 01:51:05;;;;;;;751.80;669.13;;;;;;;;;;4998395;28;20089;-86
2023/08/23 01:53:32;;;;;;;762.15;679.95;;;;;;;;;;5001680;28;20131;-86
2023/08/23 01:55:59;;;;;;;749.80;668.58;;;;;;;;;;5000311;28;20042;-85
2023/08/23 01:58:26;;;;;;;752.00;670.33;;;;;;;;;;4998622;28;20038;-86
2023/08/23 02:01:05;;;;;;;851.40;695.08;;;;;;;;;;5027862;22;20086;31
2023/08/23 02:03:32;;;;;;;745.30;664.22;;;;;;;;;;4939584;28;20057;-65
2023/08/23 02:05:59;;;;;;;736.78;658.83;;;;;;;;;;4966580;28;20038;-64
2023/08/23 02:08:26;;;;;;;747.35;665.22;;;;;;;;;;4962975;28;20054;-64
2023/08/23 02:10:53;;;;;;;739.25;659.08;;;;;;;;;;4960821;28;20047;-65
2023/08/23 02:13:19;;;;;;;741.65;661.60;;;;;;;;;;4961975;28;20055;-65
2023/08/23 02:15:46;;;;;;;735.65;656.45;;;;;;;;;;4958873;28;20047;-65
2023/08/23 02:18:12;;;;;;;740.08;659.13;;;;;;;;;;4962449;28;20122;-65
2023/08/23 02:20:43;;;;;;;738.17;657.88;;;;;;;;;;4962879;28;20176;-64
2023/08/23 02:23:09;;;;;;;745.22;657.08;;;;;;;;;;4962866;28;20485;-65
2023/08/23 02:25:36;;;;;;;740.63;652.78;;;;;;;;;;4965221;28;20063;-65
2023/08/23 02:28:02;;;;;;;721.47;640.90;;;;;;;;;;4962988;28;20130;-64
2023/08/23 02:30:30;;;;;;;737.67;646.60;;;;;;;;;;4964898;28;20547;-65
2023/08/23 02:32:56;;;;;;;757.20;650.47;;;;;;;;;;4962210;28;20404;-65
2023/08/23 02:35:23;;;;;;;740.97;649.60;;;;;;;;;;4960867;28;20051;-65
2023/08/23 02:37:49;;;;;;;724.40;645.15;;;;;;;;;;4961214;28;20050;-66
2023/08/23 02:40:16;;;;;;;736.58;647.47;;;;;;;;;;4961540;28;20078;-65
2023/08/23 02:42:42;;;;;;;710.92;633.28;;;;;;;;;;4963394;28;20047;-65
2023/08/23 02:45:09;;;;;;;719.47;639.78;;;;;;;;;;4963438;28;20047;-65
2023/08/23 02:47:37;;;;;;;736.58;635.15;;;;;;;;;;4944789;28;20043;-65
2023/08/23 02:50:04;;;;;;;729.38;634.88;;;;;;;;;;4960126;28;20066;-65
2023/08/23 02:52:30;;;;;;;718.42;637.15;;;;;;;;;;4960740;28;20051;-65
2023/08/23 02:54:57;;;;;;;710.35;625.88;;;;;;;;;;4961875;28;20071;-66
2023/08/23 02:57:23;;;;;;;728.88;624.40;;;;;;;;;;4960594;28;20047;-65
2023/08/23 02:59:50;;;;;;;732.95;630.30;;;;;;;;;;4961180;28;20653;-66
2023/08/23 03:02:16;;;;;;;735.92;633.78;;;;;;;;;;4964050;28;20062;-66
2023/08/23 03:04:45;;;;;;;709.70;628.25;;;;;;;;;;4990476;28;20048;-66
2023/08/23 03:07:11;;;;;;;713.72;635.03;;;;;;;;;;4989680;28;20403;-65
2023/08/23 03:09:38;;;;;;;731.03;638.65;;;;;;;;;;4988394;28;20170;-65
2023/08/23 03:12:06;;;;;;;708.30;617.92;;;;;;;;;;4988930;28;20054;-65
2023/08/23 03:14:38;;;;;;;708.67;615.58;;;;;;;;;;4990276;28;20061;-64
2023/08/23 03:17:05;;;;;;;721.43;613.60;;;;;;;;;;4988417;28;20042;-64
2023/08/23 03:19:32;;;;;;;723.88;622.90;;;;;;;;;;4988118;28;20050;-64
2023/08/23 03:21:59;;;;;;;731.75;620.95;;;;;;;;;;4988116;28;20402;-64
2023/08/23 03:24:26;;;;;;;724.33;612.83;;;;;;;;;;4989730;28;20483;-64
2023/08/23 03:26:52;;;;;;;717.40;621.33;;;;;;;;;;4988179;28;20043;-64
2023/08/23 03:29:20;;;;;;;748.17;619.47;;;;;;;;;;4989637;28;20042;-64
2023/08/23 03:31:47;;;;;;;739.20;615.85;;;;;;;;;;4990390;28;20407;-65
2023/08/23 03:34:17;;;;;;;700.38;600.47;;;;;;;;;;4971583;28;20125;-65
2023/08/23 03:36:44;;;;;;;705.70;610.70;;;;;;;;;;4988106;28;20046;-65
2023/08/23 03:39:11;;;;;;;724.90;626.25;;;;;;;;;;4987842;28;20046;-65
2023/08/23 03:41:37;;;;;;;718.55;617.33;;;;;;;;;;4971975;28;20125;-65
2023/08/23 03:44:04;;;;;;;715.70;605.58;;;;;;;;;;4988745;28;20079;-65
2023/08/23 03:46:31;;;;;;;720.70;610.90;;;;;;;;;;4989523;28;20066;-64
2023/08/23 03:48:58;;;;;;;714.22;608.75;;;;;;;;;;4971087;28;20046;-64
2023/08/23 03:51:25;;;;;;;727.70;616.72;;;;;;;;;;4987807;28;20050;-64
2023/08/23 03:53:52;;;;;;;747.90;616.25;;;;;;;;;;4989424;28;20397;-64
2023/08/23 03:56:18;;;;;;;755.40;620.00;;;;;;;;;;4988088;28;20050;-64
2023/08/23 03:58:45;;;;;;;700.83;603.15;;;;;;;;;;4989105;28;20476;-64
2023/08/23 04:01:11;;;;;;;724.58;613.55;;;;;;;;;;4989080;28;20054;-66
2023/08/23 04:03:38;;;;;;;731.53;609.00;;;;;;;;;;4989223;28;20064;-61
2023/08/23 04:06:05;;;;;;;696.28;595.83;;;;;;;;;;4985674;28;20053;-61
2023/08/23 04:08:31;;;;;;;728.58;602.83;;;;;;;;;;4989272;28;20057;-62
2023/08/23 04:10:58;;;;;;;711.17;606.17;;;;;;;;;;4990086;28;20057;-61
2023/08/23 04:13:25;;;;;;;744.38;621.08;;;;;;;;;;4971854;28;20050;-61
2023/08/23 04:15:53;;;;;;;718.70;612.30;;;;;;;;;;4988348;28;20050;-62
2023/08/23 04:18:19;;;;;;;718.05;608.53;;;;;;;;;;4988500;28;20042;-62
2023/08/23 04:20:46;;;;;;;708.35;617.88;;;;;;;;;;4989514;28;20066;-62
2023/08/23 04:23:12;;;;;;;748.53;632.42;;;;;;;;;;4987943;28;20050;-62
2023/08/23 04:25:39;;;;;;;711.45;606.15;;;;;;;;;;4989285;28;20058;-62
2023/08/23 04:28:05;;;;;;;856.92;646.08;;;;;;;;;;4938770;22;20115;-62
2023/08/23 04:30:32;;;;;;;701.53;624.78;;;;;;;;;;5017847;28;20403;-62
2023/08/23 04:32:59;;;;;;;743.00;634.00;;;;;;;;;;5002450;28;20133;-61
2023/08/23 04:35:26;;;;;;;741.88;626.17;;;;;;;;;;5002113;28;20537;-61
2023/08/23 04:37:53;;;;;;;719.33;631.80;;;;;;;;;;5018003;28;20065;-61
2023/08/23 04:40:19;;;;;;;717.75;631.47;;;;;;;;;;5002536;28;20046;-61
2023/08/23 04:42:46;;;;;;;715.90;637.13;;;;;;;;;;5023163;28;20046;-61
2023/08/23 04:45:13;;;;;;;743.17;659.08;;;;;;;;;;5006389;28;20406;-62
2023/08/23 04:47:41;;;;;;;772.70;689.00;;;;;;;;;;5002672;28;20074;-62
2023/08/23 04:50:08;;;;;;;795.80;712.88;;;;;;;;;;5002773;28;20054;-62
2023/08/23 04:52:35;;;;;;;813.60;731.03;;;;;;;;;;5002814;28;20046;-61
2023/08/23 04:55:01;;;;;;;828.03;741.20;;;;;;;;;;5017957;28;20053;-62
2023/08/23 04:57:28;;;;;;;834.42;750.28;;;;;;;;;;5011792;28;20050;-61
2023/08/23 04:59:55;;;;;;;854.35;766.58;;;;;;;;;;5004952;28;20092;-61
2023/08/23 05:02:22;;;;;;;887.33;795.53;;;;;;;;;;5005295;28;20049;-61
2023/08/23 05:04:51;;;;;;;914.17;825.83;;;;;;;;;;5013006;28;20081;-62
2023/08/23 05:07:18;;;;;;;956.60;868.30;;;;;;;;;;5013226;28;20042;-61
2023/08/23 05:09:44;;;;;;;986.42;894.88;;;;;;;;;;5019767;28;20053;-61
2023/08/23 05:12:11;;;;;;;1004.30;914.17;;;;;;;;;;5026642;28;20048;-61
2023/08/23 05:14:37;;;;;;;1032.78;936.88;;;;;;;;;;5023991;28;20065;-62
2023/08/23 05:17:04;;;;;;;1050.72;955.78;;;;;;;;;;5004209;28;20088;-61
2023/08/23 05:19:30;;;;;;;1050.53;956.92;;;;;;;;;;5021522;28;20449;-62
2023/08/23 05:21:57;;;;;;;1051.65;958.72;;;;;;;;;;5007114;28;20057;-62
2023/08/23 05:24:23;;;;;;;1067.53;971.10;;;;;;;;;;5022421;28;20041;-59
2023/08/23 05:26:50;;;;;;;1063.63;969.28;;;;;;;;;;5006596;28;20049;-61
2023/08/23 05:29:17;;;;;;;1078.43;979.83;;;;;;;;;;5023390;28;20057;-60
2023/08/23 05:31:43;;;;;;;1082.65;986.15;;;;;;;;;;5018735;28;20049;-60
2023/08/23 05:34:10;;;;;;;1090.15;995.20;;;;;;;;;;5015940;28;20145;-59
2023/08/23 05:36:36;;;;;;;1085.88;990.10;;;;;;;;;;4999434;28;20045;-59
2023/08/23 05:39:03;;;;;;;1094.53;997.17;;;;;;;;;;5023707;28;20132;-60
2023/08/23 05:41:30;;;;;;;1103.28;999.90;;;;;;;;;;5020934;28;20072;-59
2023/08/23 05:43:56;;;;;;;1111.90;999.90;;;;;;;;;;5020142;28;20049;-58
2023/08/23 05:46:23;;;;;;;1128.80;999.90;;;;;;;;;;5022429;28;20037;-59
2023/08/23 05:48:50;;;;;;;1127.78;999.90;;;;;;;;;;5025051;28;20489;-59
2023/08/23 05:51:16;;;;;;;1133.80;999.90;;;;;;;;;;5010922;28;20053;-60
2023/08/23 05:53:43;;;;;;;1150.05;999.90;;;;;;;;;;5015957;28;20120;-59
2023/08/23 05:56:10;;;;;;;1150.15;999.90;;;;;;;;;;5016376;28;20128;-60
2023/08/23 05:58:36;;;;;;;1135.13;999.90;;;;;;;;;;5020609;28;20072;-60
2023/08/23 06:01:03;;;;;;;1148.75;999.90;;;;;;;;;;5023976;28;20034;-59
2023/08/23 06:03:29;;;;;;;1149.78;999.90;;;;;;;;;;5024459;28;20545;-60
2023/08/23 06:05:56;;;;;;;1141.38;999.90;;;;;;;;;;5021536;28;20582;-59
2023/08/23 06:08:23;;;;;;;1147.65;999.90;;;;;;;;;;5018103;28;20073;-61
2023/08/23 06:10:49;;;;;;;1157.82;999.90;;;;;;;;;;5023987;28;20065;-60
2023/08/23 06:13:16;;;;;;;1158.85;999.90;;;;;;;;;;5020453;28;20150;-59
2023/08/23 06:15:43;;;;;;;1170.55;999.90;;;;;;;;;;5022994;28;20045;-60
2023/08/23 06:18:09;;;;;;;1173.25;999.90;;;;;;;;;;5020656;28;20139;-60
2023/08/23 06:20:36;;;;;;;1171.60;999.90;;;;;;;;;;5013302;28;20040;-60
2023/08/23 06:23:02;;;;;;;1157.00;999.90;;;;;;;;;;5024464;28;20046;-58
2023/08/23 06:25:29;;;;;;;1165.18;999.90;;;;;;;;;;5021642;28;20738;-61
2023/08/23 06:27:55;;;;;;;1170.40;999.90;;;;;;;;;;5018577;28;20088;-60
2023/08/23 06:30:22;;;;;;;1169.28;999.90;;;;;;;;;;5024822;28;20064;-60
2023/08/23 06:32:49;;;;;;;1165.32;999.90;;;;;;;;;;5021752;28;20033;-61
2023/08/23 06:35:16;;;;;;;1151.70;999.90;;;;;;;;;;5019782;28;20554;-58
2023/08/23 06:37:43;;;;;;;1164.35;999.90;;;;;;;;;;5023030;28;20049;-59
2023/08/23 06:40:10;;;;;;;1162.78;999.90;;;;;;;;;;5021727;28;20050;-57
2023/08/23 06:42:37;;;;;;;1161.70;999.90;;;;;;;;;;5021844;28;20042;-58
2023/08/23 06:45:04;;;;;;;1166.95;999.90;;;;;;;;;;5020488;28;20042;-58
2023/08/23 06:47:31;;;;;;;1175.80;999.90;;;;;;;;;;5021269;28;20053;-60
2023/08/23 06:49:58;;;;;;;1157.03;999.90;;;;;;;;;;5020139;28;20038;-59
2023/08/23 06:52:25;;;;;;;1171.75;999.90;;;;;;;;;;5024748;28;20046;-57
2023/08/23 06:54:51;;;;;;;1169.78;999.90;;;;;;;;;;5019267;28;20046;-58
2023/08/23 06:57:20;;;;;;;1176.90;999.90;;;;;;;;;;5024010;28;20103;-58
2023/08/23 06:59:46;;;;;;;1167.57;999.90;;;;;;;;;;5022200;28;20168;-60
2023/08/23 07:02:13;;;;;;;1185.43;999.90;;;;;;;;;;5022163;28;20045;-58
2023/08/23 07:04:40;;;;;;;1174.97;999.90;;;;;;;;;;5022725;28;20487;-57
2023/08/23 07:07:06;;;;;;;1172.15;999.90;;;;;;;;;;5023598;28;20041;-58
2023/08/23 07:09:33;;;;;;;1187.88;999.90;;;;;;;;;;5022817;28;20140;-61
2023/08/23 07:11:59;;;;;;;1168.45;999.90;;;;;;;;;;5031090;28;20049;-59
2023/08/23 07:14:26;;;;;;;1197.07;999.90;;;;;;;;;;5044394;22;20081;-87
2023/08/23 07:16:52;;;;;;;1187.78;999.90;;;;;;;;;;5058493;28;20107;-85
2023/08/23 07:19:19;;;;;;;1203.68;999.90;;;;;;;;;;5028674;28;20045;-88
2023/08/23 07:21:45;;;;;;;1199.78;999.90;;;;;;;;;;5051541;28;20041;-88
2023/08/23 07:24:15;;;;;;;1190.40;999.90;;;;;;;;;;5071662;28;20048;-88
2023/08/23 07:26:44;;;;;;;1183.55;999.90;;;;;;;;;;5054397;28;20092;-88
2023/08/23 07:29:15;;;;;;;1189.18;999.90;;;;;;;;;;5068869;28;20057;-88
2023/08/23 07:31:43;;;;;;;1176.68;999.90;;;;;;;;;;5031863;28;20057;-88
2023/08/23 07:34:10;;;;;;;1171.63;999.90;;;;;;;;;;5026298;28;20046;-87
2023/08/23 07:36:37;;;;;;;1176.07;999.90;;;;;;;;;;5031316;28;20116;-87
2023/08/23 07:39:03;;;;;;;1163.43;999.90;;;;;;;;;;5048815;28;20041;-87
2023/08/23 07:41:30;;;;;;;1182.40;999.90;;;;;;;;;;5030345;28;20049;-88
2023/08/23 07:43:57;;;;;;;1162.93;999.90;;;;;;;;;;5048990;28;20546;-88
2023/08/23 07:46:24;;;;;;;1162.28;999.90;;;;;;;;;;5029608;28;20044;-87
2023/08/23 07:48:51;;;;;;;1151.32;999.90;;;;;;;;;;5045698;28;20036;-87
2023/08/23 07:51:17;;;;;;;1153.40;999.90;;;;;;;;;;5045650;28;20052;-87
2023/08/23 07:53:44;;;;;;;1137.10;999.90;;;;;;;;;;5046915;28;20594;-88
2023/08/23 07:56:11;;;;;;;1122.78;999.90;;;;;;;;;;5047806;28;20040;-87
2023/08/23 08:03:13;;;;;;;1112.95;999.35;;;;;;;;;;4973083;28;20439;-88
2023/08/23 08:18:59;;;;;;;1068.60;966.88;;;;;;;;;;4920538;29;20050;-88
2023/08/23 08:29:30;;;;;;;1080.65;969.58;;;;;;;;;;5045324;28;20470;-60
2023/08/23 08:31:58;;;;;;;1054.88;959.97;;;;;;;;;;5057388;28;20045;-59
2023/08/23 08:34:25;;;;;;;1066.35;967.30;;;;;;;;;;5051132;28;20539;-60
2023/08/23 08:36:52;;;;;;;1049.53;954.50;;;;;;;;;;5051516;28;20051;-60
2023/08/23 08:39:18;;;;;;;1065.95;963.83;;;;;;;;;;5051183;28;20045;-60
2023/08/23 08:41:46;;;;;;;1069.68;971.67;;;;;;;;;;5051492;28;20129;-60
2023/08/23 08:44:13;;;;;;;1073.97;971.35;;;;;;;;;;5052099;28;20150;-60
2023/08/23 08:46:40;;;;;;;1054.65;962.45;;;;;;;;;;5034246;28;20098;-63
2023/08/23 08:49:07;;;;;;;1051.43;958.97;;;;;;;;;;5032690;28;20057;-63
2023/08/23 08:51:35;;;;;;;1057.57;964.33;;;;;;;;;;5033196;28;20048;-63
2023/08/23 08:54:05;;;;;;;1057.30;963.00;;;;;;;;;;5033627;28;20486;-63
2023/08/23 08:56:32;;;;;;;1060.93;963.50;;;;;;;;;;5051228;28;20057;-64
2023/08/23 08:58:59;;;;;;;1052.65;957.85;;;;;;;;;;5034021;28;20041;-62
2023/08/23 09:01:31;;;;;;;1051.75;958.63;;;;;;;;;;5051585;28;20394;-64
2023/08/23 09:03:58;;;;;;;1047.68;955.45;;;;;;;;;;5029420;28;20395;-63
2023/08/23 09:06:26;;;;;;;1054.85;958.70;;;;;;;;;;5047660;28;20699;-63
2023/08/23 09:08:53;;;;;;;1062.63;968.20;;;;;;;;;;5051505;28;20055;-62
2023/08/23 09:11:20;;;;;;;1083.05;979.55;;;;;;;;;;5016703;28;20405;-64
2023/08/23 09:13:48;;;;;;;1061.90;966.08;;;;;;;;;;5051700;28;20049;-65
2023/08/23 09:16:15;;;;;;;1057.90;963.63;;;;;;;;;;5033027;28;20044;-64
2023/08/23 09:18:46;;;;;;;1061.13;967.88;;;;;;;;;;5050853;28;20474;-67
2023/08/23 09:21:13;;;;;;;1059.03;965.78;;;;;;;;;;5033481;28;20067;-64
2023/08/23 09:23:40;;;;;;;1056.78;962.08;;;;;;;;;;5031960;28;20087;-62
2023/08/23 09:26:06;;;;;;;1061.10;967.83;;;;;;;;;;5051991;28;20541;-68
2023/08/23 09:28:33;;;;;;;1062.85;968.03;;;;;;;;;;5031990;28;20708;-66
2023/08/23 09:31:00;;;;;;;1075.57;980.13;;;;;;;;;;5050524;28;20512;-60
2023/08/23 09:33:27;;;;;;;1091.00;987.78;;;;;;;;;;5053164;28;20043;-61
2023/08/23 09:35:58;;;;;;;1078.50;977.55;;;;;;;;;;5056649;28;20040;-60
2023/08/23 09:38:27;;;;;;;1109.88;992.75;;;;;;;;;;5048396;28;20093;-60
2023/08/23 09:40:54;;;;;;;1065.10;970.28;;;;;;;;;;5049934;28;20041;-60
2023/08/23 09:43:22;;;;;;;1073.82;978.47;;;;;;;;;;5048943;28;20041;-60
2023/08/23 09:45:49;;;;;;;1067.07;974.15;;;;;;;;;;5049765;28;20458;-60
2023/08/23 09:48:18;;;;;;;1068.40;973.53;;;;;;;;;;5049353;28;20033;-61
2023/08/23 09:50:46;;;;;;;1068.45;971.58;;;;;;;;;;5047460;28;20052;-61
2023/08/23 09:53:17;;;;;;;1065.93;971.35;;;;;;;;;;5050714;28;20057;-61
2023/08/23 09:55:44;;;;;;;1078.60;978.38;;;;;;;;;;5049889;28;20041;-60
2023/08/23 09:58:10;;;;;;;1059.35;966.70;;;;;;;;;;5031848;28;20613;-61
2023/08/23 10:00:37;;;;;;;1066.18;970.30;;;;;;;;;;5049751;28;20076;-60
2023/08/23 10:03:04;;;;;;;1076.40;975.97;;;;;;;;;;5049338;28;20041;-61
2023/08/23 10:05:34;;;;;;;1116.03;997.38;;;;;;;;;;5049853;28;20053;-61
2023/08/23 10:08:01;;;;;;;1071.95;976.83;;;;;;;;;;5050890;28;20128;-61
2023/08/23 10:10:30;;;;;;;1079.20;978.38;;;;;;;;;;5049610;28;20492;-60
2023/08/23 10:12:59;;;;;;;1068.85;973.70;;;;;;;;;;5049654;28;20552;-60
2023/08/23 10:15:28;;;;;;;1078.18;981.55;;;;;;;;;;5049753;28;20389;-60
2023/08/23 10:17:57;;;;;;;1073.03;974.20;;;;;;;;;;5048786;28;20406;-59
2023/08/23 10:20:23;;;;;;;1087.82;987.17;;;;;;;;;;5049967;28;20145;-60
2023/08/23 10:22:54;;;;;;;1067.82;973.97;;;;;;;;;;5050474;28;20087;-61
2023/08/23 10:25:22;;;;;;;1081.55;984.13;;;;;;;;;;5048978;28;20119;-60
2023/08/23 10:27:51;;;;;;;1069.55;975.72;;;;;;;;;;5049440;28;20111;-60
2023/08/23 10:30:23;;;;;;;1072.72;979.08;;;;;;;;;;5049802;28;20128;-61
2023/08/23 10:32:50;;;;;;;1081.60;985.22;;;;;;;;;;5049444;28;20045;-60
2023/08/23 10:35:26;;;;;;;1087.03;990.40;;;;;;;;;;5048440;28;20134;-60
2023/08/23 10:37:53;;;;;;;1087.70;988.22;;;;;;;;;;5048792;28;20450;-61
2023/08/23 10:40:20;;;;;;;1070.03;977.22;;;;;;;;;;5048381;28;20094;-60
2023/08/23 10:42:48;;;;;;;1075.30;981.55;;;;;;;;;;5048095;28;20136;-59
2023/08/23 10:45:16;;;;;;;1088.53;991.65;;;;;;;;;;5049499;28;20048;-60
2023/08/23 10:47:43;;;;;;;1075.38;980.50;;;;;;;;;;5049459;28;20733;-61
2023/08/23 10:50:10;;;;;;;1059.85;968.97;;;;;;;;;;5048013;28;20118;-61
2023/08/23 10:52:37;;;;;;;1076.13;981.25;;;;;;;;;;5049181;28;20172;-59
2023/08/23 10:55:04;;;;;;;1069.45;976.42;;;;;;;;;;5049293;28;20110;-60
2023/08/23 10:57:31;;;;;;;1068.28;974.08;;;;;;;;;;5049126;28;20107;-60
2023/08/23 10:59:57;;;;;;;1079.20;982.97;;;;;;;;;;5049805;28;20041;-59
2023/08/23 11:02:24;;;;;;;1081.40;979.88;;;;;;;;;;5022989;28;20390;-60
2023/08/23 11:04:51;;;;;;;1059.60;968.38;;;;;;;;;;5050870;28;20049;-60
2023/08/23 11:07:23;;;;;;;1062.03;967.10;;;;;;;;;;5050033;28;20052;-59
2023/08/23 11:09:49;;;;;;;1063.25;971.47;;;;;;;;;;5050470;28;20040;-61
2023/08/23 11:12:16;;;;;;;1056.40;964.80;;;;;;;;;;5050496;28;20068;-60
2023/08/23 11:14:42;;;;;;;1066.13;973.28;;;;;;;;;;5046708;28;20456;-60
2023/08/23 11:17:10;;;;;;;1069.00;974.50;;;;;;;;;;5051355;28;20049;-60
2023/08/23 11:19:37;;;;;;;1076.00;983.55;;;;;;;;;;5049843;28;20049;-61
2023/08/23 11:22:06;;;;;;;1083.55;988.70;;;;;;;;;;5047731;28;20045;-60
2023/08/23 11:24:32;;;;;;;1086.13;990.28;;;;;;;;;;5049539;28;20130;-60
2023/08/23 11:26:59;;;;;;;1096.75;993.42;;;;;;;;;;5031196;28;20091;-60
2023/08/23 11:29:25;;;;;;;1126.57;999.90;;;;;;;;;;5046438;28;20274;-60
2023/08/23 11:31:53;;;;;;;1096.05;997.00;;;;;;;;;;5049878;28;20106;-60
2023/08/23 11:34:20;;;;;;;1085.63;990.20;;;;;;;;;;5047983;28;20124;-60
2023/08/23 11:36:47;;;;;;;1095.70;997.13;;;;;;;;;;5048339;28;20051;-60
2023/08/23 11:39:13;;;;;;;1112.30;999.90;;;;;;;;;;5048559;28;20052;-60
2023/08/23 11:41:40;;;;;;;1100.82;998.63;;;;;;;;;;5048341;28;20033;-60
2023/08/23 11:44:07;;;;;;;1102.60;999.65;;;;;;;;;;5049722;28;20053;-60
2023/08/23 11:46:39;;;;;;;1110.53;999.90;;;;;;;;;;5048195;28;20082;-60
2023/08/23 11:49:07;;;;;;;1096.22;997.22;;;;;;;;;;5047544;28;20037;-61
2023/08/23 11:51:40;;;;;;;1099.05;998.15;;;;;;;;;;5048295;28;20106;-60
2023/08/23 11:54:08;;;;;;;1100.40;999.28;;;;;;;;;;5045675;28;20480;-60
2023/08/23 11:56:38;;;;;;;1118.47;999.90;;;;;;;;;;5047869;28;20513;-61
2023/08/23 11:59:05;;;;;;;1090.82;994.90;;;;;;;;;;5049575;28;20094;-60
2023/08/23 12:01:34;;;;;;;1101.55;999.22;;;;;;;;;;5047672;28;20531;-61
2023/08/23 12:04:02;;;;;;;1095.28;994.10;;;;;;;;;;5047460;28;20033;-60
2023/08/23 12:06:29;;;;;;;1108.45;999.90;;;;;;;;;;5047631;28;20041;-60
2023/08/23 12:08:55;;;;;;;1103.22;999.90;;;;;;;;;;5048019;28;20045;-60
2023/08/23 12:11:22;;;;;;;1153.65;999.90;;;;;;;;;;5047994;28;20410;-61
2023/08/23 12:13:48;;;;;;;1104.53;999.90;;;;;;;;;;5049125;28;20045;-60
2023/08/23 12:16:15;;;;;;;1089.68;995.25;;;;;;;;;;5047915;28;20049;-62
2023/08/23 12:18:44;;;;;;;1089.32;994.55;;;;;;;;;;5047537;28;20037;-60
2023/08/23 12:21:10;;;;;;;1097.38;997.83;;;;;;;;;;5047990;28;20037;-60
2023/08/23 12:23:37;;;;;;;1107.50;999.90;;;;;;;;;;5047782;28;20033;-60
2023/08/23 12:26:04;;;;;;;1108.47;999.90;;;;;;;;;;5049108;28;20502;-60
2023/08/23 12:28:30;;;;;;;1107.93;999.90;;;;;;;;;;5047712;28;20085;-61
2023/08/23 12:30:57;;;;;;;1104.30;999.90;;;;;;;;;;5047696;28;20128;-60
2023/08/23 12:33:24;;;;;;;1116.15;999.90;;;;;;;;;;5046989;28;20045;-60
2023/08/23 12:35:50;;;;;;;1122.45;999.90;;;;;;;;;;5047799;28;20124;-62
2023/08/23 12:38:17;;;;;;;1117.38;999.90;;;;;;;;;;5044806;28;20041;-61
2023/08/23 12:40:44;;;;;;;1108.97;999.90;;;;;;;;;;5048445;28;20401;-60
2023/08/23 12:43:10;;;;;;;1117.30;999.90;;;;;;;;;;5047334;28;20037;-61
2023/08/23 12:45:37;;;;;;;1115.75;999.90;;;;;;;;;;5029720;28;20076;-61
2023/08/23 12:48:04;;;;;;;1126.88;999.90;;;;;;;;;;5047302;28;20045;-61
2023/08/23 12:50:31;;;;;;;1132.43;999.90;;;;;;;;;;5047954;28;20060;-61
2023/08/23 12:52:57;;;;;;;1112.78;999.90;;;;;;;;;;5048896;28;20071;-60
2023/08/23 12:55:24;;;;;;;1112.32;999.90;;;;;;;;;;5047717;28;20041;-61
2023/08/23 12:57:51;;;;;;;1128.18;999.90;;;;;;;;;;5046950;28;20068;-61
2023/08/23 13:00:18;;;;;;;1117.38;999.90;;;;;;;;;;5047878;28;20048;-60
2023/08/23 13:02:58;;;;;;;1124.40;999.90;;;;;;;;;;5044173;28;20041;-61
2023/08/23 13:05:26;;;;;;;1133.00;999.90;;;;;;;;;;5048005;28;20059;-60
2023/08/23 13:07:53;;;;;;;1117.03;999.90;;;;;;;;;;5047980;28;20037;-60
2023/08/23 13:10:20;;;;;;;1114.93;999.90;;;;;;;;;;5046642;28;20045;-61
2023/08/23 13:12:47;;;;;;;1114.55;999.90;;;;;;;;;;5047600;28;20075;-60
2023/08/23 13:15:13;;;;;;;1109.88;999.90;;;;;;;;;;5047774;28;20477;-60
2023/08/23 13:17:41;;;;;;;1115.82;999.90;;;;;;;;;;5048120;28;20227;-61
2023/08/23 13:20:09;;;;;;;1110.10;999.90;;;;;;;;;;5050625;28;20552;-61
2023/08/23 13:22:36;;;;;;;1115.57;999.90;;;;;;;;;;5049004;28;20413;-60
2023/08/23 13:25:03;;;;;;;1131.65;999.90;;;;;;;;;;5049937;28;20036;-60
2023/08/23 13:27:32;;;;;;;1125.47;999.90;;;;;;;;;;5050017;28;20045;-60
2023/08/23 13:29:59;;;;;;;1123.93;999.90;;;;;;;;;;5050485;28;20057;-60
2023/08/23 13:32:25;;;;;;;1148.88;999.90;;;;;;;;;;5050749;28;20040;-60
2023/08/23 13:34:53;;;;;;;1115.75;999.90;;;;;;;;;;5051553;28;20429;-60
2023/08/23 13:37:20;;;;;;;1118.60;999.90;;;;;;;;;;5050777;28;20041;-60
2023/08/23 13:39:46;;;;;;;1115.47;999.90;;;;;;;;;;5032632;28;20123;-61
2023/08/23 13:42:13;;;;;;;1100.43;999.90;;;;;;;;;;5047536;28;20048;-61
2023/08/23 13:44:40;;;;;;;1107.57;999.90;;;;;;;;;;5050849;28;20133;-60
2023/08/23 13:47:07;;;;;;;1106.20;999.90;;;;;;;;;;5051789;28;20060;-60
2023/08/23 13:49:33;;;;;;;1105.32;999.90;;;;;;;;;;5050319;28;20041;-61
2023/08/23 13:52:00;;;;;;;1106.53;999.90;;;;;;;;;;5050662;28;20049;-62
2023/08/23 13:54:26;;;;;;;1113.32;999.90;;;;;;;;;;5050106;28;20047;-60
2023/08/23 13:56:53;;;;;;;1109.95;999.90;;;;;;;;;;5050047;28;20041;-60
2023/08/23 13:59:19;;;;;;;1113.13;999.90;;;;;;;;;;5050777;28;20044;-62
2023/08/23 14:01:47;;;;;;;1109.85;999.90;;;;;;;;;;5051095;28;20064;-61
2023/08/23 14:04:14;;;;;;;1109.95;999.90;;;;;;;;;;5049572;28;20069;-60
2023/08/23 14:06:40;;;;;;;1102.35;999.90;;;;;;;;;;5050253;28;20140;-60
2023/08/23 14:09:08;;;;;;;1103.38;999.90;;;;;;;;;;5050051;28;20097;-61